sensor_id;sensor_type;location;lat;lon;timestamp;pressure;altitude;pressure_sealevel;temperature;humidity
2673;BME280;1346;51.558;6.996;2022-09-21T00:00:29;102088.19;;;8.46;100.00
2673;BME280;1346;51.558;6.996;2022-09-21T00:02:58;102086.69;;;8.42;100.00
2673;BME280;1346;51.558;6.996;2022-09-21T00:05:25;102079.75;;;8.39;100.00
2673;BME280;1346;51.558;6.996;2022-09-21T00:07:52;102083.47;;;8.37;100.00
2673;BME280;1346;51.558;6.996;2022-09-21T00:10:19;102089.03;;;8.34;100.00
2673;BME280;1346;51.558;6.996;2022-09-21T00:12:46;102089.25;;;8.31;100.00
2673;BME280;1346;51.558;6.996;2022-09-21T00:15:15;102084.97;;;8.28;100.00
2673;BME280;1346;51.558;6.996;2022-09-21T00:17:44;102088.59;;;8.27;100.00
2673;BME280;1346;51.558;6.996;2022-09-21T00:20:13;102085.19;;;8.25;100.00
2673;BME280;1346;51.558;6.996;2022-09-21T00:22:40;102086.03;;;8.26;100.00
2673;BME280;1346;51.558;6.996;2022-09-21T00:25:08;102080.59;;;8.27;100.00
2673;BME280;1346;51.558;6.996;2022-09-21T00:27:35;102090.41;;;8.27;100.00
2673;BME280;1346;51.558;6.996;2022-09-21T00:30:03;102085.28;;;8.24;100.00
2673;BME280;1346;51.558;6.996;2022-09-21T00:32:33;102085.59;;;8.19;100.00
2673;BME280;1346;51.558;6.996;2022-09-21T00:35:01;102088.44;;;8.16;100.00
2673;BME280;1346;51.558;6.996;2022-09-21T00:37:30;102091.09;;;8.16;100.00
2673;BME280;1346;51.558;6.996;2022-09-21T00:39:56;102088.31;;;8.18;100.00
2673;BME280;1346;51.558;6.996;2022-09-21T00:42:27;102093.66;;;8.18;100.00
2673;BME280;1346;51.558;6.996;2022-09-21T00:44:54;102087.72;;;8.14;100.00
2673;BME280;1346;51.558;6.996;2022-09-21T00:47:25;102088.88;;;8.10;100.00
2673;BME280;1346;51.558;6.996;2022-09-21T00:49:55;102082.97;;;8.05;100.00
2673;BME280;1346;51.558;6.996;2022-09-21T00:52:24;102087.78;;;8.00;100.00
2673;BME280;1346;51.558;6.996;2022-09-21T00:54:59;102088.94;;;7.96;100.00
2673;BME280;1346;51.558;6.996;2022-09-21T00:57:29;102084.78;;;7.92;100.00
2673;BME280;1346;51.558;6.996;2022-09-21T01:00:04;102084.22;;;7.87;100.00
2673;BME280;1346;51.558;6.996;2022-09-21T01:02:33;102094.97;;;7.86;100.00
2673;BME280;1346;51.558;6.996;2022-09-21T01:05:00;102095.28;;;7.81;100.00
2673;BME280;1346;51.558;6.996;2022-09-21T01:07:31;102095.50;;;7.78;100.00
2673;BME280;1346;51.558;6.996;2022-09-21T01:10:03;102097.41;;;7.76;100.00
2673;BME280;1346;51.558;6.996;2022-09-21T01:12:49;102097.63;;;7.73;100.00
2673;BME280;1346;51.558;6.996;2022-09-21T01:15:29;102102.19;;;7.71;100.00
2673;BME280;1346;51.558;6.996;2022-09-21T01:18:10;102100.56;;;7.69;100.00
2673;BME280;1346;51.558;6.996;2022-09-21T01:21:12;102100.66;;;7.67;100.00
2673;BME280;1346;51.558;6.996;2022-09-21T01:24:28;102098.22;;;7.64;100.00
2673;BME280;1346;51.558;6.996;2022-09-21T01:27:28;102096.63;;;7.62;100.00
2673;BME280;1346;51.558;6.996;2022-09-21T01:30:04;102098.53;;;7.60;100.00
2673;BME280;1346;51.558;6.996;2022-09-21T01:32:37;102100.53;;;7.56;100.00
2673;BME280;1346;51.558;6.996;2022-09-21T01:35:09;102100.75;;;7.53;100.00
2673;BME280;1346;51.558;6.996;2022-09-21T01:37:44;102110.75;;;7.50;100.00
2673;BME280;1346;51.558;6.996;2022-09-21T01:40:17;102101.13;;;7.47;100.00
2673;BME280;1346;51.558;6.996;2022-09-21T01:42:48;102102.09;;;7.46;100.00
2673;BME280;1346;51.558;6.996;2022-09-21T01:45:22;102107.63;;;7.43;100.00
2673;BME280;1346;51.558;6.996;2022-09-21T01:47:53;102108.66;;;7.41;100.00
2673;BME280;1346;51.558;6.996;2022-09-21T01:50:22;102101.72;;;7.38;100.00
2673;BME280;1346;51.558;6.996;2022-09-21T01:52:56;102110.66;;;7.37;100.00
2673;BME280;1346;51.558;6.996;2022-09-21T01:55:31;102108.97;;;7.36;100.00
2673;BME280;1346;51.558;6.996;2022-09-21T01:58:06;102097.34;;;7.37;100.00
2673;BME280;1346;51.558;6.996;2022-09-21T02:00:38;102097.44;;;7.35;100.00
2673;BME280;1346;51.558;6.996;2022-09-21T02:03:12;102101.91;;;7.35;100.00
2673;BME280;1346;51.558;6.996;2022-09-21T02:05:42;102105.53;;;7.34;100.00
2673;BME280;1346;51.558;6.996;2022-09-21T02:08:10;102105.75;;;7.31;100.00
2673;BME280;1346;51.558;6.996;2022-09-21T02:10:41;102106.78;;;7.28;100.00
2673;BME280;1346;51.558;6.996;2022-09-21T02:13:10;102106.00;;;7.26;100.00
2673;BME280;1346;51.558;6.996;2022-09-21T02:15:58;102104.41;;;7.24;100.00
2673;BME280;1346;51.558;6.996;2022-09-21T02:18:40;102105.34;;;7.23;100.00
2673;BME280;1346;51.558;6.996;2022-09-21T02:21:15;102106.31;;;7.22;100.00
2673;BME280;1346;51.558;6.996;2022-09-21T02:23:55;102102.69;;;7.23;100.00
2673;BME280;1346;51.558;6.996;2022-09-21T02:26:32;102100.03;;;7.23;100.00
2673;BME280;1346;51.558;6.996;2022-09-21T02:29:09;102105.28;;;7.24;100.00
2673;BME280;1346;51.558;6.996;2022-09-21T02:31:48;102106.13;;;7.25;100.00
2673;BME280;1346;51.558;6.996;2022-09-21T02:34:23;102105.19;;;7.26;100.00
2673;BME280;1346;51.558;6.996;2022-09-21T02:36:57;102105.09;;;7.27;100.00
2673;BME280;1346;51.558;6.996;2022-09-21T02:39:32;102106.56;;;7.31;100.00
2673;BME280;1346;51.558;6.996;2022-09-21T02:42:05;102100.09;;;7.35;100.00
2673;BME280;1346;51.558;6.996;2022-09-21T02:44:39;102096.41;;;7.38;100.00
2673;BME280;1346;51.558;6.996;2022-09-21T02:47:13;102101.53;;;7.41;100.00
2673;BME280;1346;51.558;6.996;2022-09-21T02:49:46;102103.13;;;7.44;100.00
2673;BME280;1346;51.558;6.996;2022-09-21T02:52:17;102100.34;;;7.45;100.00
2673;BME280;1346;51.558;6.996;2022-09-21T02:54:48;102100.25;;;7.47;100.00
2673;BME280;1346;51.558;6.996;2022-09-21T02:57:18;102095.78;;;7.47;100.00
2673;BME280;1346;51.558;6.996;2022-09-21T02:59:46;102097.53;;;7.48;100.00
2673;BME280;1346;51.558;6.996;2022-09-21T03:02:14;102091.41;;;7.46;100.00
2673;BME280;1346;51.558;6.996;2022-09-21T03:04:44;102095.88;;;7.46;100.00
2673;BME280;1346;51.558;6.996;2022-09-21T03:07:13;102094.19;;;7.45;100.00
2673;BME280;1346;51.558;6.996;2022-09-21T03:09:40;102096.00;;;7.44;100.00
2673;BME280;1346;51.558;6.996;2022-09-21T03:12:08;102101.31;;;7.44;100.00
2673;BME280;1346;51.558;6.996;2022-09-21T03:14:35;102102.28;;;7.43;100.00
2673;BME280;1346;51.558;6.996;2022-09-21T03:17:02;102104.09;;;7.43;100.00
2673;BME280;1346;51.558;6.996;2022-09-21T03:19:30;102106.00;;;7.41;100.00
2673;BME280;1346;51.558;6.996;2022-09-21T03:21:58;102104.28;;;7.40;100.00
2673;BME280;1346;51.558;6.996;2022-09-21T03:24:25;102116.75;;;7.39;100.00
2673;BME280;1346;51.558;6.996;2022-09-21T03:27:09;102108.00;;;7.37;100.00
2673;BME280;1346;51.558;6.996;2022-09-21T03:29:36;102108.09;;;7.35;100.00
2673;BME280;1346;51.558;6.996;2022-09-21T03:32:03;102112.56;;;7.35;100.00
2673;BME280;1346;51.558;6.996;2022-09-21T03:34:31;102118.88;;;7.34;100.00
2673;BME280;1346;51.558;6.996;2022-09-21T03:36:58;102115.44;;;7.32;100.00
2673;BME280;1346;51.558;6.996;2022-09-21T03:39:25;102120.00;;;7.30;100.00
2673;BME280;1346;51.558;6.996;2022-09-21T03:41:52;102113.91;;;7.28;100.00
2673;BME280;1346;51.558;6.996;2022-09-21T03:44:20;102115.84;;;7.26;100.00
2673;BME280;1346;51.558;6.996;2022-09-21T03:46:47;102116.88;;;7.23;100.00
2673;BME280;1346;51.558;6.996;2022-09-21T03:49:14;102118.88;;;7.20;100.00
2673;BME280;1346;51.558;6.996;2022-09-21T03:51:43;102109.28;;;7.17;100.00
2673;BME280;1346;51.558;6.996;2022-09-21T03:54:11;102116.63;;;7.14;100.00
2673;BME280;1346;51.558;6.996;2022-09-21T03:56:37;102115.00;;;7.11;100.00
2673;BME280;1346;51.558;6.996;2022-09-21T03:59:04;102110.72;;;7.09;100.00
2673;BME280;1346;51.558;6.996;2022-09-21T04:01:32;102120.63;;;7.07;100.00
2673;BME280;1346;51.558;6.996;2022-09-21T04:03:59;102119.00;;;7.04;100.00
2673;BME280;1346;51.558;6.996;2022-09-21T04:06:26;102116.44;;;7.03;100.00
2673;BME280;1346;51.558;6.996;2022-09-21T04:08:55;102120.25;;;6.99;100.00
2673;BME280;1346;51.558;6.996;2022-09-21T04:11:22;102116.91;;;6.95;100.00
2673;BME280;1346;51.558;6.996;2022-09-21T04:13:50;102118.91;;;6.92;100.00
2673;BME280;1346;51.558;6.996;2022-09-21T04:16:17;102120.91;;;6.88;100.00
2673;BME280;1346;51.558;6.996;2022-09-21T04:18:44;102121.13;;;6.85;100.00
2673;BME280;1346;51.558;6.996;2022-09-21T04:21:15;102123.00;;;6.83;100.00
2673;BME280;1346;51.558;6.996;2022-09-21T04:23:42;102122.25;;;6.81;100.00
2673;BME280;1346;51.558;6.996;2022-09-21T04:26:21;102124.22;;;6.78;100.00
2673;BME280;1346;51.558;6.996;2022-09-21T04:28:49;102112.81;;;6.76;100.00
2673;BME280;1346;51.558;6.996;2022-09-21T04:31:16;102121.75;;;6.75;100.00
2673;BME280;1346;51.558;6.996;2022-09-21T04:33:43;102118.34;;;6.73;100.00
2673;BME280;1346;51.558;6.996;2022-09-21T04:36:13;102129.94;;;6.72;100.00
2673;BME280;1346;51.558;6.996;2022-09-21T04:38:39;102120.22;;;6.71;100.00
2673;BME280;1346;51.558;6.996;2022-09-21T04:41:06;102124.69;;;6.70;100.00
2673;BME280;1346;51.558;6.996;2022-09-21T04:43:35;102127.34;;;6.70;100.00
2673;BME280;1346;51.558;6.996;2022-09-21T04:46:06;102118.63;;;6.68;100.00
2673;BME280;1346;51.558;6.996;2022-09-21T04:48:34;102130.13;;;6.69;100.00
2673;BME280;1346;51.558;6.996;2022-09-21T04:51:02;102134.69;;;6.67;100.00
2673;BME280;1346;51.558;6.996;2022-09-21T04:53:31;102134.69;;;6.67;100.00
2673;BME280;1346;51.558;6.996;2022-09-21T04:55:58;102130.41;;;6.64;100.00
2673;BME280;1346;51.558;6.996;2022-09-21T04:58:25;102136.78;;;6.62;100.00
2673;BME280;1346;51.558;6.996;2022-09-21T05:00:53;102145.81;;;6.59;100.00
2673;BME280;1346;51.558;6.996;2022-09-21T05:03:22;102137.16;;;6.56;100.00
2673;BME280;1346;51.558;6.996;2022-09-21T05:05:51;102134.56;;;6.54;100.00
2673;BME280;1346;51.558;6.996;2022-09-21T05:08:19;102142.66;;;6.53;100.00
2673;BME280;1346;51.558;6.996;2022-09-21T05:11:08;102134.00;;;6.49;100.00
2673;BME280;1346;51.558;6.996;2022-09-21T05:13:35;102141.13;;;6.49;100.00
2673;BME280;1346;51.558;6.996;2022-09-21T05:16:04;102144.84;;;6.46;100.00
2673;BME280;1346;51.558;6.996;2022-09-21T05:18:31;102142.28;;;6.45;100.00
2673;BME280;1346;51.558;6.996;2022-09-21T05:21:00;102143.22;;;6.44;100.00
2673;BME280;1346;51.558;6.996;2022-09-21T05:23:29;102145.00;;;6.43;100.00
2673;BME280;1346;51.558;6.996;2022-09-21T05:25:58;102147.75;;;6.42;100.00
2673;BME280;1346;51.558;6.996;2022-09-21T05:28:26;102145.09;;;6.42;100.00
2673;BME280;1346;51.558;6.996;2022-09-21T05:30:59;102148.53;;;6.44;100.00
2673;BME280;1346;51.558;6.996;2022-09-21T05:33:31;102159.19;;;6.44;100.00
2673;BME280;1346;51.558;6.996;2022-09-21T05:36:07;102151.97;;;6.46;100.00
2673;BME280;1346;51.558;6.996;2022-09-21T05:38:36;102158.88;;;6.48;100.00
2673;BME280;1346;51.558;6.996;2022-09-21T05:41:04;102162.22;;;6.52;100.00
2673;BME280;1346;51.558;6.996;2022-09-21T05:43:32;102162.06;;;6.55;100.00
2673;BME280;1346;51.558;6.996;2022-09-21T05:46:04;102160.00;;;6.60;100.00
2673;BME280;1346;51.558;6.996;2022-09-21T05:48:39;102169.47;;;6.64;100.00
2673;BME280;1346;51.558;6.996;2022-09-21T05:51:16;102164.75;;;6.69;100.00
2673;BME280;1346;51.558;6.996;2022-09-21T05:53:56;102175.13;;;6.73;100.00
2673;BME280;1346;51.558;6.996;2022-09-21T05:56:38;102175.81;;;6.77;100.00
2673;BME280;1346;51.558;6.996;2022-09-21T05:59:35;102173.88;;;6.79;100.00
2673;BME280;1346;51.558;6.996;2022-09-21T06:02:15;102173.72;;;6.82;100.00
2673;BME280;1346;51.558;6.996;2022-09-21T06:04:46;102177.06;;;6.85;100.00
2673;BME280;1346;51.558;6.996;2022-09-21T06:07:14;102176.00;;;6.88;100.00
2673;BME280;1346;51.558;6.996;2022-09-21T06:09:41;102185.44;;;6.93;100.00
2673;BME280;1346;51.558;6.996;2022-09-21T06:12:08;102182.47;;;6.98;100.00
2673;BME280;1346;51.558;6.996;2022-09-21T06:14:36;102188.38;;;7.03;100.00
2673;BME280;1346;51.558;6.996;2022-09-21T06:17:03;102188.94;;;7.08;100.00
2673;BME280;1346;51.558;6.996;2022-09-21T06:19:30;102184.28;;;7.11;100.00
2673;BME280;1346;51.558;6.996;2022-09-21T06:21:59;102191.81;;;7.19;100.00
2673;BME280;1346;51.558;6.996;2022-09-21T06:24:25;102190.66;;;7.23;100.00
2673;BME280;1346;51.558;6.996;2022-09-21T06:26:52;102192.94;;;7.29;100.00
2673;BME280;1346;51.558;6.996;2022-09-21T06:29:19;102196.19;;;7.34;100.00
2673;BME280;1346;51.558;6.996;2022-09-21T06:31:48;102191.41;;;7.39;100.00
2673;BME280;1346;51.558;6.996;2022-09-21T06:34:16;102186.56;;;7.46;100.00
2673;BME280;1346;51.558;6.996;2022-09-21T06:36:43;102189.69;;;7.52;100.00
2673;BME280;1346;51.558;6.996;2022-09-21T06:39:11;102188.53;;;7.56;100.00
2673;BME280;1346;51.558;6.996;2022-09-21T06:41:39;102185.47;;;7.62;100.00
2673;BME280;1346;51.558;6.996;2022-09-21T06:44:05;102198.44;;;7.68;100.00
2673;BME280;1346;51.558;6.996;2022-09-21T06:46:33;102199.84;;;7.74;100.00
2673;BME280;1346;51.558;6.996;2022-09-21T06:48:59;102187.81;;;7.81;100.00
2673;BME280;1346;51.558;6.996;2022-09-21T06:51:27;102188.19;;;7.89;100.00
2673;BME280;1346;51.558;6.996;2022-09-21T06:53:55;102192.06;;;7.97;100.00
2673;BME280;1346;51.558;6.996;2022-09-21T06:56:24;102195.09;;;8.05;100.00
2673;BME280;1346;51.558;6.996;2022-09-21T06:58:52;102191.06;;;8.12;100.00
2673;BME280;1346;51.558;6.996;2022-09-21T07:01:19;102194.06;;;8.20;100.00
2673;BME280;1346;51.558;6.996;2022-09-21T07:03:49;102189.97;;;8.29;100.00
2673;BME280;1346;51.558;6.996;2022-09-21T07:06:17;102196.50;;;8.37;100.00
2673;BME280;1346;51.558;6.996;2022-09-21T07:08:45;102194.16;;;8.45;100.00
2673;BME280;1346;51.558;6.996;2022-09-21T07:11:12;102189.06;;;8.55;100.00
2673;BME280;1346;51.558;6.996;2022-09-21T07:13:41;102192.94;;;8.64;100.00
2673;BME280;1346;51.558;6.996;2022-09-21T07:16:10;102191.34;;;8.74;100.00
2673;BME280;1346;51.558;6.996;2022-09-21T07:18:39;102195.09;;;8.84;100.00
2673;BME280;1346;51.558;6.996;2022-09-21T07:21:09;102194.34;;;8.94;100.00
2673;BME280;1346;51.558;6.996;2022-09-21T07:23:36;102197.22;;;9.04;100.00
2673;BME280;1346;51.558;6.996;2022-09-21T07:26:06;102194.66;;;9.15;100.00
2673;BME280;1346;51.558;6.996;2022-09-21T07:28:33;102186.75;;;9.26;100.00
2673;BME280;1346;51.558;6.996;2022-09-21T07:31:07;102188.66;;;9.36;100.00
2673;BME280;1346;51.558;6.996;2022-09-21T07:33:35;102187.88;;;9.47;100.00
2673;BME280;1346;51.558;6.996;2022-09-21T07:36:03;102190.63;;;9.58;100.00
2673;BME280;1346;51.558;6.996;2022-09-21T07:38:35;102195.97;;;9.70;100.00
2673;BME280;1346;51.558;6.996;2022-09-21T07:41:03;102189.81;;;9.81;100.00
2673;BME280;1346;51.558;6.996;2022-09-21T07:43:30;102188.16;;;9.91;100.00
2673;BME280;1346;51.558;6.996;2022-09-21T07:45:58;102188.38;;;10.01;100.00
2673;BME280;1346;51.558;6.996;2022-09-21T07:48:28;102193.69;;;10.13;100.00
2673;BME280;1346;51.558;6.996;2022-09-21T07:51:00;102193.75;;;10.24;100.00
2673;BME280;1346;51.558;6.996;2022-09-21T07:53:29;102194.75;;;10.34;100.00
2673;BME280;1346;51.558;6.996;2022-09-21T07:56:01;102185.06;;;10.44;100.00
2673;BME280;1346;51.558;6.996;2022-09-21T07:58:28;102187.78;;;10.55;100.00
2673;BME280;1346;51.558;6.996;2022-09-21T08:01:13;102180.50;;;10.68;100.00
2673;BME280;1346;51.558;6.996;2022-09-21T08:03:41;102187.50;;;10.82;100.00
2673;BME280;1346;51.558;6.996;2022-09-21T08:06:08;102188.47;;;10.92;100.00
2673;BME280;1346;51.558;6.996;2022-09-21T08:08:36;102198.38;;;11.03;100.00
2673;BME280;1346;51.558;6.996;2022-09-21T08:11:05;102194.00;;;11.13;100.00
2673;BME280;1346;51.558;6.996;2022-09-21T08:13:32;102190.56;;;11.22;100.00
2673;BME280;1346;51.558;6.996;2022-09-21T08:16:01;102192.28;;;11.34;100.00
2673;BME280;1346;51.558;6.996;2022-09-21T08:18:28;102194.59;;;11.49;100.00
2673;BME280;1346;51.558;6.996;2022-09-21T08:20:59;102184.97;;;11.58;100.00
2673;BME280;1346;51.558;6.996;2022-09-21T08:23:27;102197.56;;;11.68;100.00
2673;BME280;1346;51.558;6.996;2022-09-21T08:25:57;102201.94;;;11.80;100.00
2673;BME280;1346;51.558;6.996;2022-09-21T08:28:26;102192.41;;;11.87;100.00
2673;BME280;1346;51.558;6.996;2022-09-21T08:30:53;102193.22;;;11.99;100.00
2673;BME280;1346;51.558;6.996;2022-09-21T08:33:24;102195.72;;;12.11;100.00
2673;BME280;1346;51.558;6.996;2022-09-21T08:35:52;102197.78;;;12.19;100.00
2673;BME280;1346;51.558;6.996;2022-09-21T08:38:21;102206.94;;;12.28;100.00
2673;BME280;1346;51.558;6.996;2022-09-21T08:40:49;102202.03;;;12.33;100.00
2673;BME280;1346;51.558;6.996;2022-09-21T08:43:24;102194.75;;;12.44;100.00
2673;BME280;1346;51.558;6.996;2022-09-21T08:45:56;102195.31;;;12.59;100.00
2673;BME280;1346;51.558;6.996;2022-09-21T08:48:27;102199.66;;;12.71;100.00
2673;BME280;1346;51.558;6.996;2022-09-21T08:50:59;102195.78;;;12.84;100.00
2673;BME280;1346;51.558;6.996;2022-09-21T08:53:33;102193.75;;;12.97;100.00
2673;BME280;1346;51.558;6.996;2022-09-21T08:56:02;102196.81;;;13.13;100.00
2673;BME280;1346;51.558;6.996;2022-09-21T08:58:31;102201.41;;;13.22;100.00
2673;BME280;1346;51.558;6.996;2022-09-21T09:01:18;102199.34;;;13.35;100.00
2673;BME280;1346;51.558;6.996;2022-09-21T09:04:03;102203.66;;;13.48;100.00
2673;BME280;1346;51.558;6.996;2022-09-21T09:06:42;102202.00;;;13.56;100.00
2673;BME280;1346;51.558;6.996;2022-09-21T09:09:34;102200.47;;;13.63;100.00
2673;BME280;1346;51.558;6.996;2022-09-21T09:12:19;102206.56;;;13.65;100.00
2673;BME280;1346;51.558;6.996;2022-09-21T09:15:04;102203.59;;;13.68;100.00
2673;BME280;1346;51.558;6.996;2022-09-21T09:17:48;102207.16;;;13.78;100.00
2673;BME280;1346;51.558;6.996;2022-09-21T09:20:19;102207.59;;;13.83;100.00
2673;BME280;1346;51.558;6.996;2022-09-21T09:22:58;102210.16;;;13.85;100.00
2673;BME280;1346;51.558;6.996;2022-09-21T09:25:35;102205.78;;;13.84;100.00
2673;BME280;1346;51.558;6.996;2022-09-21T09:28:16;102208.03;;;13.88;100.00
2673;BME280;1346;51.558;6.996;2022-09-21T09:30:48;102213.03;;;13.93;100.00
2673;BME280;1346;51.558;6.996;2022-09-21T09:33:21;102201.00;;;14.06;100.00
2673;BME280;1346;51.558;6.996;2022-09-21T09:35:54;102208.56;;;14.22;100.00
2673;BME280;1346;51.558;6.996;2022-09-21T09:38:28;102213.84;;;14.33;100.00
2673;BME280;1346;51.558;6.996;2022-09-21T09:41:32;102212.72;;;14.45;100.00
2673;BME280;1346;51.558;6.996;2022-09-21T09:44:19;102216.69;;;14.50;100.00
2673;BME280;1346;51.558;6.996;2022-09-21T09:47:01;102212.56;;;14.56;100.00
2673;BME280;1346;51.558;6.996;2022-09-21T09:49:40;102213.53;;;14.65;100.00
2673;BME280;1346;51.558;6.996;2022-09-21T09:52:15;102210.41;;;14.79;100.00
2673;BME280;1346;51.558;6.996;2022-09-21T09:54:43;102215.09;;;14.86;100.00
2673;BME280;1346;51.558;6.996;2022-09-21T09:57:12;102209.84;;;14.94;100.00
2673;BME280;1346;51.558;6.996;2022-09-21T09:59:45;102212.81;;;15.01;100.00
2673;BME280;1346;51.558;6.996;2022-09-21T10:02:20;102207.50;;;15.09;100.00
2673;BME280;1346;51.558;6.996;2022-09-21T10:04:56;102207.63;;;15.26;100.00
2673;BME280;1346;51.558;6.996;2022-09-21T10:07:40;102210.59;;;15.42;100.00
2673;BME280;1346;51.558;6.996;2022-09-21T10:10:33;102204.94;;;15.63;100.00
2673;BME280;1346;51.558;6.996;2022-09-21T10:13:11;102204.28;;;15.79;100.00
2673;BME280;1346;51.558;6.996;2022-09-21T10:15:43;102207.59;;;16.00;100.00
2673;BME280;1346;51.558;6.996;2022-09-21T10:18:18;102208.06;;;16.13;100.00
2673;BME280;1346;51.558;6.996;2022-09-21T10:20:55;102203.13;;;16.26;100.00
2673;BME280;1346;51.558;6.996;2022-09-21T10:23:24;102203.72;;;16.47;97.88
2673;BME280;1346;51.558;6.996;2022-09-21T10:26:03;102205.63;;;16.72;92.42
2673;BME280;1346;51.558;6.996;2022-09-21T10:28:33;102211.25;;;16.96;89.58
2673;BME280;1346;51.558;6.996;2022-09-21T10:31:18;102199.19;;;17.16;88.18
2673;BME280;1346;51.558;6.996;2022-09-21T10:33:53;102209.25;;;17.24;90.52
2673;BME280;1346;51.558;6.996;2022-09-21T10:36:32;102206.41;;;17.08;91.61
2673;BME280;1346;51.558;6.996;2022-09-21T10:39:21;102205.97;;;16.95;92.43
2673;BME280;1346;51.558;6.996;2022-09-21T10:41:55;102206.47;;;16.90;92.20
2673;BME280;1346;51.558;6.996;2022-09-21T10:44:28;102202.44;;;16.76;93.24
2673;BME280;1346;51.558;6.996;2022-09-21T10:47:02;102202.81;;;16.56;94.68
2673;BME280;1346;51.558;6.996;2022-09-21T10:49:30;102197.03;;;16.41;96.04
2673;BME280;1346;51.558;6.996;2022-09-21T10:51:58;102194.72;;;16.29;96.42
2673;BME280;1346;51.558;6.996;2022-09-21T10:54:28;102187.84;;;16.17;95.88
2673;BME280;1346;51.558;6.996;2022-09-21T10:56:59;102191.31;;;16.09;96.15
2673;BME280;1346;51.558;6.996;2022-09-21T10:59:31;102192.75;;;16.04;95.47
2673;BME280;1346;51.558;6.996;2022-09-21T11:01:59;102196.16;;;16.06;94.30
2673;BME280;1346;51.558;6.996;2022-09-21T11:04:38;102191.94;;;16.03;93.32
2673;BME280;1346;51.558;6.996;2022-09-21T11:07:16;102186.53;;;16.03;95.06
2673;BME280;1346;51.558;6.996;2022-09-21T11:09:49;102194.25;;;16.16;95.26
2673;BME280;1346;51.558;6.996;2022-09-21T11:12:37;102184.38;;;16.42;91.71
2673;BME280;1346;51.558;6.996;2022-09-21T11:15:19;102194.53;;;16.57;88.42
2673;BME280;1346;51.558;6.996;2022-09-21T11:17:54;102185.75;;;16.63;88.57
2673;BME280;1346;51.558;6.996;2022-09-21T11:20:34;102186.41;;;16.57;87.38
2673;BME280;1346;51.558;6.996;2022-09-21T11:23:10;102188.50;;;16.46;88.11
2673;BME280;1346;51.558;6.996;2022-09-21T11:25:49;102180.03;;;16.31;88.28
2673;BME280;1346;51.558;6.996;2022-09-21T11:28:23;102176.31;;;16.15;88.29
2673;BME280;1346;51.558;6.996;2022-09-21T11:31:22;102181.25;;;16.02;90.85
2673;BME280;1346;51.558;6.996;2022-09-21T11:34:14;102181.69;;;15.97;90.90
2673;BME280;1346;51.558;6.996;2022-09-21T11:36:52;102175.59;;;15.95;88.82
2673;BME280;1346;51.558;6.996;2022-09-21T11:39:43;102168.72;;;16.01;84.53
2673;BME280;1346;51.558;6.996;2022-09-21T11:42:30;102170.53;;;16.10;84.27
2673;BME280;1346;51.558;6.996;2022-09-21T11:45:09;102170.91;;;16.15;85.19
2673;BME280;1346;51.558;6.996;2022-09-21T11:47:52;102171.47;;;16.18;79.52
2673;BME280;1346;51.558;6.996;2022-09-21T11:50:35;102174.72;;;16.22;79.88
2673;BME280;1346;51.558;6.996;2022-09-21T11:53:24;102168.34;;;16.31;79.67
2673;BME280;1346;51.558;6.996;2022-09-21T11:56:40;102154.44;;;16.43;77.87
2673;BME280;1346;51.558;6.996;2022-09-21T11:59:34;102159.38;;;16.83;75.79
2673;BME280;1346;51.558;6.996;2022-09-21T12:02:33;102152.88;;;17.27;69.66
2673;BME280;1346;51.558;6.996;2022-09-21T12:05:11;102149.19;;;17.36;70.48
2673;BME280;1346;51.558;6.996;2022-09-21T12:08:02;102148.63;;;17.58;71.57
2673;BME280;1346;51.558;6.996;2022-09-21T12:10:42;102141.81;;;17.96;67.98
2673;BME280;1346;51.558;6.996;2022-09-21T12:13:24;102148.81;;;18.39;69.43
2673;BME280;1346;51.558;6.996;2022-09-21T12:16:01;102141.22;;;18.66;60.57
2673;BME280;1346;51.558;6.996;2022-09-21T12:18:39;102140.69;;;18.79;62.75
2673;BME280;1346;51.558;6.996;2022-09-21T12:21:19;102138.63;;;18.89;60.99
2673;BME280;1346;51.558;6.996;2022-09-21T12:23:51;102133.53;;;18.94;63.80
2673;BME280;1346;51.558;6.996;2022-09-21T12:26:26;102135.56;;;19.00;64.66
2673;BME280;1346;51.558;6.996;2022-09-21T12:28:58;102135.22;;;19.03;63.48
2673;BME280;1346;51.558;6.996;2022-09-21T12:31:32;102133.50;;;19.10;64.28
2673;BME280;1346;51.558;6.996;2022-09-21T12:34:08;102124.53;;;19.01;63.72
2673;BME280;1346;51.558;6.996;2022-09-21T12:36:41;102129.13;;;18.93;63.91
2673;BME280;1346;51.558;6.996;2022-09-21T12:39:17;102129.63;;;18.96;70.76
2673;BME280;1346;51.558;6.996;2022-09-21T12:41:52;102134.69;;;19.15;70.14
2673;BME280;1346;51.558;6.996;2022-09-21T12:44:33;102119.22;;;19.32;65.58
2673;BME280;1346;51.558;6.996;2022-09-21T12:47:21;102123.28;;;19.36;67.71
2673;BME280;1346;51.558;6.996;2022-09-21T12:49:50;102125.00;;;19.13;63.65
2673;BME280;1346;51.558;6.996;2022-09-21T12:52:25;102126.94;;;18.80;68.86
2673;BME280;1346;51.558;6.996;2022-09-21T12:54:59;102123.94;;;18.51;71.48
2673;BME280;1346;51.558;6.996;2022-09-21T13:00:20;102119.66;;;18.08;75.42
2673;BME280;1346;51.558;6.996;2022-09-21T13:02:53;102112.66;;;17.98;78.26
2673;BME280;1346;51.558;6.996;2022-09-21T13:05:33;102117.56;;;17.86;78.95
2673;BME280;1346;51.558;6.996;2022-09-21T13:08:09;102111.13;;;17.79;79.92
2673;BME280;1346;51.558;6.996;2022-09-21T13:10:44;102110.06;;;17.72;80.22
2673;BME280;1346;51.558;6.996;2022-09-21T13:13:25;102110.38;;;17.61;80.56
2673;BME280;1346;51.558;6.996;2022-09-21T13:15:54;102106.13;;;17.59;79.86
2673;BME280;1346;51.558;6.996;2022-09-21T13:18:25;102103.66;;;17.81;79.22
2673;BME280;1346;51.558;6.996;2022-09-21T13:20:53;102110.81;;;18.23;76.10
2673;BME280;1346;51.558;6.996;2022-09-21T13:23:27;102105.44;;;18.63;71.25
2673;BME280;1346;51.558;6.996;2022-09-21T13:26:02;102099.19;;;19.09;71.66
2673;BME280;1346;51.558;6.996;2022-09-21T13:31:51;102106.16;;;19.89;61.36
2673;BME280;1346;51.558;6.996;2022-09-21T13:34:29;102100.38;;;20.14;59.81
2673;BME280;1346;51.558;6.996;2022-09-21T13:37:27;102095.44;;;20.40;59.05
2673;BME280;1346;51.558;6.996;2022-09-21T13:40:37;102094.81;;;20.53;54.19
2673;BME280;1346;51.558;6.996;2022-09-21T13:49:47;102083.84;;;20.24;53.97
2673;BME280;1346;51.558;6.996;2022-09-21T13:52:38;102089.16;;;20.17;57.52
2673;BME280;1346;51.558;6.996;2022-09-21T13:55:23;102081.47;;;19.98;56.74